Time;durP1;ratioP1;P1;durP2;ratioP2;P2;SDS_P1;SDS_P2;PMS_P1;PMS_P2;Temp;Humidity;BMP_temperature;BMP_pressure;BME280_temperature;BME280_humidity;BME280_pressure;Samples;Min_cycle;Max_cycle;Signal;HPM_P1;HPM_P2
2022/07/16 00:03:15;;;;;;;3.45;2.28;;;;;;;21.98;100.00;151564.25;5072468;28;20303;-61
2022/07/16 00:05:41;;;;;;;2.60;2.50;;;;;;;21.92;100.00;151549.00;5072558;28;20560;-61
2022/07/16 00:08:08;;;;;;;3.55;2.40;;;;;;;21.74;100.00;151503.03;5072783;28;20635;-61
2022/07/16 00:10:37;;;;;;;4.63;2.70;;;;;;;21.39;100.00;151416.38;5072135;28;20227;-62
2022/07/16 00:13:04;;;;;;;2.53;2.33;;;;;;;21.23;100.00;151374.31;5072172;28;20189;-61
2022/07/16 00:15:32;;;;;;;4.38;2.05;;;;;;;21.19;100.00;151365.41;5071373;28;20189;-62
2022/07/16 00:20:40;;;;;;;2.40;2.30;;;;;;;20.80;100.00;151265.97;5072452;28;20204;-61
2022/07/16 00:23:07;;;;;;;2.72;2.38;;;;;;;20.74;100.00;151252.00;5071872;28;20195;-61
2022/07/16 00:25:35;;;;;;;5.60;2.70;;;;;;;20.72;100.00;133980.41;5072436;28;20683;-62
2022/07/16 00:28:02;;;;;;;5.20;2.40;;;;;;;20.58;100.00;125853.63;5072183;28;20284;-62
2022/07/16 00:30:28;;;;;;;4.53;2.80;;;;;;;20.74;100.00;125214.69;5072017;28;20189;-61
2022/07/16 00:32:57;;;;;;;4.77;2.63;;;;;;;20.72;100.00;127568.69;5072233;28;20195;-61
2022/07/16 00:35:24;;;;;;;2.80;2.60;;;;;;;20.82;100.00;131639.03;5072387;28;20187;-61
2022/07/16 00:37:50;;;;;;;2.67;2.47;;;;;;;20.98;100.00;125264.28;5072713;28;20663;-61
2022/07/16 00:40:17;;;;;;;3.20;2.75;;;;;;;21.09;100.00;129671.94;5072373;28;20195;-62
2022/07/16 00:42:44;;;;;;;2.90;2.72;;;;;;;21.02;100.00;137767.38;5071920;28;20685;-62
2022/07/16 00:45:11;;;;;;;4.60;2.72;;;;;;;20.96;100.00;127283.06;5072137;28;20258;-61
2022/07/16 00:47:38;;;;;;;2.30;2.20;;;;;;;20.71;100.00;111420.50;5072104;28;20638;-61
2022/07/16 00:50:09;;;;;;;2.85;2.75;;;;;;;20.75;100.00;106732.38;5072175;28;20195;-62
2022/07/16 00:52:36;;;;;;;3.97;2.40;;;;;;;20.67;100.00;100357.09;5071704;28;20196;-62
2022/07/16 00:55:05;;;;;;;3.47;2.65;;;;;;;20.77;100.00;99369.63;5072218;28;20339;-62
2022/07/16 00:57:32;;;;;;;2.72;2.60;;;;;;;20.77;100.00;100374.06;5072119;28;20720;-61
2022/07/16 00:59:58;;;;;;;3.00;2.70;;;;;;;20.77;100.00;100707.81;5071820;28;20267;-61
2022/07/16 01:02:25;;;;;;;2.70;2.60;;;;;;;20.55;100.00;99333.50;5071716;28;20271;-61
2022/07/16 01:04:53;;;;;;;2.53;2.42;;;;;;;20.62;100.00;95334.81;5072078;28;20201;-61
2022/07/16 01:07:22;;;;;;;3.20;2.88;;;;;;;20.61;100.00;92661.34;5071889;28;20258;-62
2022/07/16 01:09:49;;;;;;;2.63;2.47;;;;;;;20.57;100.00;96662.94;5071710;28;20200;-61
2022/07/16 01:12:17;;;;;;;4.72;3.55;;;;;;;20.57;100.00;90654.06;5071953;28;20624;-64
2022/07/16 01:14:45;;;;;;;4.20;3.03;;;;;;;20.46;100.00;85306.38;5072104;28;20191;-62
2022/07/16 01:17:12;;;;;;;2.72;2.60;;;;;;;20.46;100.00;78652.88;5071827;28;20610;-61
2022/07/16 01:19:39;;;;;;;2.97;2.60;;;;;;;20.47;100.00;73341.78;5071793;28;20674;-62
2022/07/16 01:22:06;;;;;;;4.00;2.90;;;;;;;20.39;100.00;68358.88;5071762;28;20189;-62
2022/07/16 01:24:34;;;;;;;3.20;2.88;;;;;;;20.46;100.00;64062.00;5071736;28;20651;-62
2022/07/16 01:27:01;;;;;;;3.47;3.15;;;;;;;20.48;100.00;65057.66;5071752;28;20195;-62
2022/07/16 01:29:29;;;;;;;3.28;2.90;;;;;;;20.63;100.00;66066.66;5071518;28;20200;-61
2022/07/16 01:31:56;;;;;;;3.17;2.93;;;;;;;20.61;100.00;69046.28;5074769;28;20199;-62
2022/07/16 01:34:25;;;;;;;3.58;3.30;;;;;;;20.61;100.00;73026.81;5075829;28;20211;-61
2022/07/16 01:36:57;;;;;;;3.55;3.35;;;;;;;20.64;100.00;72366.25;5074154;28;20192;-62
2022/07/16 01:39:24;;;;;;;3.03;2.93;;;;;;;20.55;100.00;72686.91;5076119;28;20191;-62
2022/07/16 01:41:54;;;;;;;3.00;2.90;;;;;;;20.68;100.00;76023.84;5075166;28;20184;-61
2022/07/16 01:44:21;;;;;;;2.83;2.72;;;;;;;20.52;100.00;70694.34;5075330;28;20189;-61
2022/07/16 01:46:48;;;;;;;4.35;2.95;;;;;;;20.55;100.00;69039.19;5075337;28;20185;-62
2022/07/16 01:49:15;;;;;;;4.40;2.72;;;;;;;20.43;100.00;70020.50;5075325;28;20185;-61
2022/07/16 01:51:42;;;;;;;5.70;3.03;;;;;;;20.69;100.00;69055.72;5074908;28;20188;-61
2022/07/16 01:54:09;;;;;;;2.83;2.63;;;;;;;20.77;100.00;69728.94;5074936;28;20284;-62
2022/07/16 01:56:36;;;;;;;3.75;2.90;;;;;;;20.87;100.00;75383.97;5074897;28;20184;-61
2022/07/16 01:59:04;;;;;;;2.90;2.80;;;;;;;20.77;100.00;77031.69;5074863;28;20189;-61
2022/07/16 02:01:31;;;;;;;2.90;2.80;;;;;;;20.72;100.00;78687.69;5074688;28;20191;-62
2022/07/16 02:03:58;;;;;;;3.25;2.90;;;;;;;20.56;100.00;77004.81;5074820;28;20323;-62
2022/07/16 02:06:25;;;;;;;3.08;2.88;;;;;;;20.57;100.00;76009.63;5073360;28;20214;-62
2022/07/16 02:08:53;;;;;;;3.00;2.80;;;;;;;20.63;100.00;73029.28;5074699;28;20193;-61
2022/07/16 02:11:20;;;;;;;3.30;3.00;;;;;;;20.65;100.00;74691.56;5074983;28;20237;-62
2022/07/16 02:13:47;;;;;;;3.40;3.20;;;;;;;20.72;100.00;78022.16;5074685;28;20195;-61
2022/07/16 02:16:15;;;;;;;3.42;3.15;;;;;;;20.79;100.00;86019.81;5074884;28;20547;-61
2022/07/16 02:18:42;;;;;;;4.85;2.85;;;;;;;20.79;100.00;89687.03;5074496;28;20185;-62
2022/07/16 02:21:08;;;;;;;3.20;3.00;;;;;;;20.72;100.00;88675.22;5074522;28;20189;-61
2022/07/16 02:23:35;;;;;;;4.07;3.38;;;;;;;20.60;100.00;79668.28;5074756;28;20657;-62
2022/07/16 02:26:02;;;;;;;6.63;3.57;;;;;;;20.51;100.00;76002.50;5074445;28;20693;-61
2022/07/16 02:28:29;;;;;;;4.13;3.73;;;;;;;20.62;100.00;78341.25;5074599;28;20193;-62
2022/07/16 02:30:56;;;;;;;4.97;3.70;;;;;;;20.66;100.00;82005.56;5073434;28;20195;-62
2022/07/16 02:33:24;;;;;;;4.38;4.03;;;;;;;20.73;100.00;79020.84;5074210;28;20200;-62
2022/07/16 02:35:51;;;;;;;6.40;4.50;;;;;;;20.75;100.00;76032.28;5074616;28;20655;-61
2022/07/16 02:38:18;;;;;;;8.73;4.20;;;;;;;20.86;100.00;76378.81;5074059;28;20292;-61
2022/07/16 02:40:45;;;;;;;9.10;3.80;;;;;;;20.93;100.00;86039.53;5074153;28;20191;-62
2022/07/16 02:43:13;;;;;;;6.38;3.85;;;;;;;20.88;100.00;84366.38;5073839;28;20220;-62
2022/07/16 02:45:41;;;;;;;4.50;3.85;;;;;;;20.91;100.00;94379.25;5074378;28;20204;-62
2022/07/16 02:48:09;;;;;;;6.63;4.35;;;;;;;20.91;100.00;99728.59;5074183;28;20189;-62
2022/07/16 02:50:37;;;;;;;7.60;3.83;;;;;;;20.90;100.00;106088.97;5074191;28;20637;-62
2022/07/16 02:53:04;;;;;;;5.15;4.07;;;;;;;21.00;100.00;120215.84;5074545;28;20655;-62
2022/07/16 02:55:31;;;;;;;8.13;4.30;;;;;;;21.06;100.00;128991.44;5074106;28;20220;-62
2022/07/16 02:57:58;;;;;;;8.73;3.70;;;;;;;20.84;100.00;104737.81;5074957;28;20551;-61
2022/07/16 03:00:28;;;;;;;3.97;3.67;;;;;;;20.76;100.00;97362.50;5073928;28;20189;-63
2022/07/16 03:02:54;;;;;;;6.63;4.00;;;;;;;20.63;100.00;87995.00;5073945;28;20533;-61
2022/07/16 03:05:21;;;;;;;3.83;3.50;;;;;;;20.73;100.00;89010.19;5073401;28;20211;-62
2022/07/16 03:07:50;;;;;;;4.57;4.18;;;;;;;20.75;100.00;90014.50;5073564;28;20276;-62
2022/07/16 03:10:17;;;;;;;5.03;4.55;;;;;;;20.71;100.00;92009.53;5073638;28;20761;-62
2022/07/16 03:12:45;;;;;;;5.88;4.13;;;;;;;20.72;100.00;89675.66;5073495;28;20235;-62
2022/07/16 03:15:12;;;;;;;5.97;3.80;;;;;;;20.69;100.00;86670.88;5073561;28;20185;-62
2022/07/16 03:17:39;;;;;;;9.50;4.20;;;;;;;20.48;100.00;85974.59;5073688;28;20651;-62
2022/07/16 03:20:08;;;;;;;5.57;4.13;;;;;;;20.67;100.00;86001.56;5073273;28;20513;-63
2022/07/16 03:22:35;;;;;;;6.20;3.95;;;;;;;21.18;100.00;98099.19;5073759;28;20552;-61
2022/07/16 03:25:05;;;;;;;6.63;4.00;;;;;;;21.82;100.00;146504.81;5073550;28;20189;-62
2022/07/16 03:27:32;;;;;;;6.47;4.53;;;;;;;22.38;100.00;151663.72;5073629;28;20213;-61
2022/07/16 03:29:59;;;;;;;8.10;4.50;;;;;;;22.91;100.00;151799.00;5073182;28;20272;-62
2022/07/16 03:32:26;;;;;;;12.90;5.25;;;;;;;23.30;100.00;151897.19;5073436;28;20211;-61
2022/07/16 03:34:52;;;;;;;6.00;4.93;;;;;;;23.44;100.00;151931.72;5073370;28;20188;-61
2022/07/16 03:37:19;;;;;;;6.93;4.43;;;;;;;23.29;100.00;151893.41;5073313;28;20638;-62
2022/07/16 03:39:46;;;;;;;7.82;4.35;;;;;;;23.08;100.00;151842.38;5073281;28;20591;-61
2022/07/16 03:42:14;;;;;;;7.35;4.63;;;;;;;22.93;100.00;151802.78;5073161;28;20185;-62
2022/07/16 03:44:41;;;;;;;6.65;4.60;;;;;;;23.05;100.00;151834.69;5073182;28;20563;-61
2022/07/16 03:47:08;;;;;;;6.00;4.22;;;;;;;23.15;100.00;151860.22;5073299;28;20590;-61
2022/07/16 03:49:36;;;;;;;3.83;3.47;;;;;;;23.28;100.00;151890.84;5073201;28;20235;-61
2022/07/16 03:52:03;;;;;;;3.67;3.40;;;;;;;23.32;100.00;151901.03;5071388;28;20185;-61
2022/07/16 03:54:30;;;;;;;7.75;3.30;;;;;;;23.66;100.00;151987.88;5072189;28;20185;-61
2022/07/16 03:56:57;;;;;;;3.65;3.35;;;;;;;23.80;100.00;152022.34;5072998;28;20181;-61
2022/07/16 03:59:25;;;;;;;4.38;4.03;;;;;;;23.79;100.00;152021.06;5071706;28;20226;-62
2022/07/16 04:01:52;;;;;;;6.72;4.15;;;;;;;23.98;100.00;152069.53;5073292;28;20192;-62
2022/07/16 04:04:19;;;;;;;4.80;4.50;;;;;;;24.49;100.00;152197.25;5072725;28;20555;-61
2022/07/16 04:06:46;;;;;;;5.07;3.47;;;;;;;25.02;100.00;152332.72;5071207;28;20207;-61
2022/07/16 04:09:13;;;;;;;3.70;3.30;;;;;;;25.34;100.00;152413.19;5072404;28;20188;-62
2022/07/16 04:11:40;;;;;;;6.70;3.13;;;;;;;25.56;100.00;152468.19;5072411;28;20603;-61
2022/07/16 04:14:06;;;;;;;9.13;3.40;;;;;;;25.37;100.00;152420.91;5072696;28;20212;-61
2022/07/16 04:16:35;;;;;;;3.50;3.30;;;;;;;25.22;100.00;152382.53;5072482;28;20180;-61
2022/07/16 04:19:02;;;;;;;6.35;3.35;;;;;;;25.22;100.00;152381.25;5072722;28;20200;-62
2022/07/16 04:21:29;;;;;;;10.43;3.47;;;;;;;25.24;100.00;152387.69;5072500;28;20188;-62
2022/07/16 04:23:56;;;;;;;7.85;3.97;;;;;;;25.37;100.00;152420.91;5072544;28;20189;-62
2022/07/16 04:26:22;;;;;;;4.00;3.58;;;;;;;25.52;100.00;152457.94;5072465;28;20201;-62
2022/07/16 04:28:49;;;;;;;7.97;3.72;;;;;;;25.71;100.00;152506.56;5072191;28;20192;-61
2022/07/16 04:31:16;;;;;;;4.85;3.08;;;;;;;25.73;100.00;152511.66;5071988;28;20189;-62
2022/07/16 04:33:44;;;;;;;4.78;3.45;;;;;;;25.89;100.00;152552.53;5072387;28;20287;-61
2022/07/16 04:36:11;;;;;;;3.88;3.67;;;;;;;25.93;100.00;152562.75;5072760;28;20676;-62
2022/07/16 04:38:38;;;;;;;7.00;3.30;;;;;;;25.96;100.00;152567.91;5072332;28;20185;-61
2022/07/16 04:41:05;;;;;;;4.65;3.42;;;;;;;26.21;100.00;152633.16;5072100;28;20185;-61
2022/07/16 04:43:32;;;;;;;9.45;3.95;;;;;;;26.29;100.00;152653.59;5072602;28;20217;-61
2022/07/16 04:45:59;;;;;;;4.22;3.80;;;;;;;26.53;100.00;152713.66;5072116;28;20209;-60
2022/07/16 04:48:26;;;;;;;13.68;3.92;;;;;;;26.51;100.00;152707.28;5070587;28;20184;-61
2022/07/16 04:50:54;;;;;;;5.82;4.10;;;;;;;26.51;100.00;152708.59;5071779;28;20189;-61
2022/07/16 04:53:21;;;;;;;12.50;4.45;;;;;;;26.38;100.00;152675.34;5072235;28;20654;-61
2022/07/16 04:55:48;;;;;;;7.35;4.50;;;;;;;26.35;100.00;152667.69;5072220;28;20185;-61
2022/07/16 04:58:15;;;;;;;7.25;4.20;;;;;;;26.25;100.00;152642.09;5072253;28;20191;-61
2022/07/16 05:00:42;;;;;;;4.55;4.13;;;;;;;26.33;100.00;152662.53;5072184;28;20654;-62
2022/07/16 05:03:09;;;;;;;6.88;4.50;;;;;;;26.30;100.00;152654.88;5071820;28;20180;-61
2022/07/16 05:05:39;;;;;;;8.75;4.13;;;;;;;26.44;100.00;152690.66;5072885;28;20253;-61
2022/07/16 05:08:10;;;;;;;10.10;4.20;;;;;;;26.64;100.00;152741.84;5076055;28;20185;-61
2022/07/16 05:10:38;;;;;;;5.93;3.67;;;;;;;26.93;100.00;152813.47;5075719;28;20258;-62
2022/07/16 05:13:05;;;;;;;5.43;3.88;;;;;;;27.12;100.00;152862.06;5076028;28;20276;-61
2022/07/16 05:15:32;;;;;;;4.10;3.80;;;;;;;27.27;100.00;152900.47;5076518;28;20227;-63
2022/07/16 05:17:59;;;;;;;7.75;3.42;;;;;;;27.58;100.00;152978.56;5075845;28;20540;-62
2022/07/16 05:20:26;;;;;;;6.03;3.05;;;;;;;27.84;100.00;153043.84;5075432;28;20283;-61
2022/07/16 05:22:53;;;;;;;4.20;3.25;;;;;;;28.06;100.00;153100.13;5075528;28;20185;-62
2022/07/16 05:25:22;;;;;;;2.67;2.20;;;;;;;28.17;100.00;153128.34;5075544;28;20254;-62
2022/07/16 05:27:49;;;;;;;3.50;2.58;;;;;;;28.38;100.00;153182.13;5075505;28;20205;-61
2022/07/16 05:30:16;;;;;;;2.35;2.25;;;;;;;28.56;100.00;153228.19;5075663;28;20206;-63
2022/07/16 05:32:44;;;;;;;2.88;2.70;;;;;;;28.57;100.00;153230.75;5076225;28;20193;-62
2022/07/16 05:35:12;;;;;;;2.13;2.03;;;;;;;28.49;100.00;153210.25;5076101;28;20193;-61
2022/07/16 05:37:39;;;;;;;4.68;2.65;;;;;;;28.64;100.00;153247.41;5075601;28;20212;-62
2022/07/16 05:40:07;;;;;;;3.25;2.50;;;;;;;28.64;100.00;153247.41;5075512;28;20195;-61
2022/07/16 05:42:35;;;;;;;2.75;2.30;;;;;;;28.69;100.00;153258.91;5075485;28;20189;-62
2022/07/16 05:45:04;;;;;;;7.88;2.75;;;;;;;28.89;100.00;153311.50;5075345;28;20189;-61
2022/07/16 05:47:33;;;;;;;6.90;4.10;;;;;;;29.27;100.00;153407.53;5074776;28;20211;-61
2022/07/16 05:50:00;;;;;;;3.28;2.13;;;;;;;29.39;100.00;153438.31;5075221;28;20216;-61
2022/07/16 05:52:27;;;;;;;1.90;1.80;;;;;;;29.63;100.00;153498.53;5074190;28;20191;-62
2022/07/16 05:54:54;;;;;;;2.03;1.80;;;;;;;29.63;100.00;153498.53;5074896;28;20192;-62
2022/07/16 05:57:21;;;;;;;2.25;1.83;;;;;;;29.62;100.00;153495.94;5075310;28;20180;-62
2022/07/16 05:59:49;;;;;;;1.70;1.60;;;;;;;29.77;96.15;153534.41;5075570;28;20196;-62
2022/07/16 06:02:16;;;;;;;1.90;1.58;;;;;;;30.07;97.57;153610.06;5075158;28;20181;-62
2022/07/16 06:04:43;;;;;;;3.05;1.70;;;;;;;30.28;93.24;153663.88;5075439;28;20188;-61
2022/07/16 06:07:10;;;;;;;2.95;1.98;;;;;;;30.53;96.22;153726.72;5075123;28;20571;-61
2022/07/16 06:09:37;;;;;;;1.98;1.88;;;;;;;30.62;87.79;153748.53;5074761;28;20206;-61
2022/07/16 06:12:04;;;;;;;2.10;1.95;;;;;;;30.61;83.60;153745.94;5075593;28;20249;-61
2022/07/16 06:14:32;;;;;;;1.80;1.70;;;;;;;30.54;81.36;153729.31;5075526;28;20195;-62
2022/07/16 06:17:00;;;;;;;1.63;1.52;;;;;;;30.87;74.63;153811.34;5074851;28;20628;-61
2022/07/16 06:19:27;;;;;;;4.72;1.85;;;;;;;31.43;70.56;153953.72;5074708;28;20188;-62
2022/07/16 06:21:56;;;;;;;6.63;2.10;;;;;;;31.43;72.59;153953.72;5075626;28;20191;-62
2022/07/16 06:24:23;;;;;;;2.40;2.13;;;;;;;31.96;77.08;154089.72;5073730;28;20231;-62
2022/07/16 06:26:50;;;;;;;4.82;2.30;;;;;;;32.16;73.68;154141.16;5074733;28;20259;-61
2022/07/16 06:29:18;;;;;;;5.22;2.28;;;;;;;32.49;69.64;154223.25;5074980;28;20185;-61
2022/07/16 06:31:46;;;;;;;2.90;2.10;;;;;;;32.40;66.35;154200.16;5074887;28;20208;-61
2022/07/16 06:34:14;;;;;;;3.30;1.70;;;;;;;32.43;60.13;154207.81;5074952;28;20608;-62
2022/07/16 06:36:41;;;;;;;1.98;1.80;;;;;;;32.69;59.23;154273.34;5074521;28;20181;-62
2022/07/16 06:39:09;;;;;;;2.65;2.17;;;;;;;32.72;60.07;154282.31;5074552;28;20184;-61
2022/07/16 06:41:36;;;;;;;2.25;1.90;;;;;;;32.88;59.27;154323.44;5074889;28;20181;-62
2022/07/16 06:44:04;;;;;;;4.90;1.70;;;;;;;32.83;53.02;154309.28;5074385;28;20258;-62
2022/07/16 06:46:31;;;;;;;5.50;1.60;;;;;;;33.15;51.63;154391.47;5074438;28;20220;-62
2022/07/16 06:48:58;;;;;;;2.92;1.50;;;;;;;34.01;49.37;154608.53;5074665;28;20191;-61
2022/07/16 06:51:26;;;;;;;7.63;1.85;;;;;;;34.45;45.41;154721.66;5075397;28;20193;-61
2022/07/16 06:53:53;;;;;;;1.60;1.50;;;;;;;34.64;43.76;154770.47;5076114;28;20184;-62
2022/07/16 06:56:20;;;;;;;3.15;1.50;;;;;;;34.61;42.72;154761.47;5076712;28;20184;-62
2022/07/16 06:58:47;;;;;;;2.95;1.65;;;;;;;34.84;43.29;154820.66;5076572;28;20184;-61
2022/07/16 07:01:14;;;;;;;2.40;1.33;;;;;;;34.18;42.07;154653.56;5076692;28;20208;-61
2022/07/16 07:03:41;;;;;;;1.88;1.60;;;;;;;33.96;44.45;154598.28;5076346;28;20191;-65
2022/07/16 07:06:09;;;;;;;5.05;1.70;;;;;;;33.35;46.20;154441.56;5076501;28;20559;-62
2022/07/16 07:08:37;;;;;;;4.35;1.70;;;;;;;32.35;48.36;154187.31;5075844;28;20191;-62
2022/07/16 07:11:04;;;;;;;3.35;2.17;;;;;;;32.33;52.98;154182.19;5075915;28;20235;-61
2022/07/16 07:13:31;;;;;;;4.30;2.10;;;;;;;32.07;56.17;154118.00;5075613;28;20525;-62
2022/07/16 07:15:59;;;;;;;6.75;2.80;;;;;;;31.94;57.75;154084.63;5075279;28;20188;-61
2022/07/16 07:18:27;;;;;;;6.85;2.53;;;;;;;31.61;71.31;154001.25;5076282;28;20183;-62
2022/07/16 07:20:53;;;;;;;4.45;2.47;;;;;;;32.12;66.02;154130.84;5076229;28;20264;-63
2022/07/16 07:23:20;;;;;;;3.95;2.53;;;;;;;31.61;73.03;154001.25;5075417;28;20184;-62
2022/07/16 07:25:49;;;;;;;3.47;2.45;;;;;;;31.49;75.97;153969.09;5075585;28;20519;-61
2022/07/16 07:28:16;;;;;;;4.10;2.42;;;;;;;31.12;77.02;153876.78;5075321;28;20230;-61
2022/07/16 07:30:43;;;;;;;3.13;2.10;;;;;;;30.99;72.34;153843.38;5075380;28;20276;-62
2022/07/16 07:33:09;;;;;;;2.33;2.10;;;;;;;30.80;72.37;153794.69;5076498;28;20193;-61
2022/07/16 07:35:36;;;;;;;3.35;2.35;;;;;;;30.47;74.19;153710.09;5075885;28;20193;-62
2022/07/16 07:38:04;;;;;;;2.42;2.22;;;;;;;30.39;67.69;153692.06;5074617;28;20272;-61
2022/07/16 07:40:31;;;;;;;2.15;2.05;;;;;;;30.26;72.13;153657.44;5076014;28;20193;-60
2022/07/16 07:43:00;;;;;;;2.58;2.08;;;;;;;30.17;80.38;153635.66;5075462;28;20189;-60
2022/07/16 07:45:27;;;;;;;6.15;2.00;;;;;;;29.91;87.47;153569.06;5074838;28;20540;-61
2022/07/16 07:47:54;;;;;;;3.10;2.28;;;;;;;29.82;89.92;153545.94;5074765;28;20204;-62
2022/07/16 07:50:21;;;;;;;2.17;2.03;;;;;;;29.92;92.74;153571.59;5075117;28;20189;-61
2022/07/16 07:52:48;;;;;;;2.10;2.00;;;;;;;29.71;90.12;153519.00;5075022;28;20196;-61
2022/07/16 07:55:15;;;;;;;2.20;2.03;;;;;;;29.01;100.00;153340.94;5075548;28;20230;-61
2022/07/16 07:57:43;;;;;;;1.70;1.65;;;;;;;28.37;100.00;153178.25;5075221;28;20188;-61
2022/07/16 08:00:12;;;;;;;2.40;2.30;;;;;;;28.46;100.00;153202.59;5075985;28;20266;-62
2022/07/16 08:02:42;;;;;;;1.70;1.70;;;;;;;28.80;100.00;153287.16;5075296;28;20187;-62
2022/07/16 08:05:10;;;;;;;2.22;2.10;;;;;;;28.63;100.00;153243.56;5074013;28;20221;-61
2022/07/16 08:07:37;;;;;;;2.30;2.20;;;;;;;28.81;100.00;153289.72;5074848;28;20204;-62
2022/07/16 08:10:05;;;;;;;3.10;2.13;;;;;;;29.25;100.00;153402.41;5074580;28;20655;-62
2022/07/16 08:12:32;;;;;;;1.95;1.85;;;;;;;28.65;100.00;153248.66;5073836;28;20196;-61
2022/07/16 08:14:59;;;;;;;4.28;2.08;;;;;;;29.28;100.00;153408.81;5075047;28;20620;-61
2022/07/16 08:17:29;;;;;;;2.17;2.00;;;;;;;29.36;100.00;153429.38;5073770;28;20333;-61
2022/07/16 08:19:56;;;;;;;2.05;2.05;;;;;;;29.25;100.00;153401.09;5073504;28;20185;-62
2022/07/16 08:22:23;;;;;;;2.35;2.25;;;;;;;29.21;100.00;153392.16;5072997;28;20193;-61
2022/07/16 08:27:34;;;;;;;3.33;1.95;;;;;;;28.96;100.00;153328.13;5074026;28;20261;-61
2022/07/16 08:30:00;;;;;;;2.05;1.90;;;;;;;28.40;100.00;153187.22;5073957;28;20180;-62
2022/07/16 08:32:29;;;;;;;2.70;2.03;;;;;;;28.13;100.00;153118.13;5073552;28;20195;-61
2022/07/16 08:34:56;;;;;;;2.80;2.20;;;;;;;28.00;100.00;153086.06;5074311;28;20254;-61
2022/07/16 08:37:33;;;;;;;4.00;1.85;;;;;;;28.01;100.00;153087.31;5075144;28;20192;-62
2022/07/16 08:40:00;;;;;;;1.98;1.88;;;;;;;28.28;100.00;153155.22;5074513;28;20257;-61
2022/07/16 08:42:27;;;;;;;5.15;2.03;;;;;;;28.45;100.00;153200.03;5075091;28;20541;-61
2022/07/16 08:44:54;;;;;;;1.75;1.65;;;;;;;28.75;100.00;153274.34;5074570;28;20207;-61
2022/07/16 08:47:21;;;;;;;2.60;1.83;;;;;;;28.96;100.00;153328.13;5074457;28;20205;-62
2022/07/16 08:49:50;;;;;;;2.30;2.10;;;;;;;29.13;100.00;153370.38;5073881;28;20192;-62
2022/07/16 08:52:20;;;;;;;2.00;1.90;;;;;;;29.08;98.87;153358.84;5073881;28;20252;-62
2022/07/16 08:54:48;;;;;;;1.60;1.60;;;;;;;28.59;83.66;153235.91;5074408;28;20695;-60
2022/07/16 08:57:16;;;;;;;2.00;1.90;;;;;;;28.74;94.17;153271.75;5074384;28;20555;-62
2022/07/16 08:59:43;;;;;;;2.95;1.90;;;;;;;29.08;95.27;153358.84;5074033;28;20188;-61
2022/07/16 09:02:12;;;;;;;1.95;1.85;;;;;;;28.77;98.61;153280.72;5072445;28;20188;-62
2022/07/16 09:04:39;;;;;;;2.83;1.77;;;;;;;28.73;96.64;153269.25;5073147;28;20271;-61
2022/07/16 09:07:08;;;;;;;2.05;1.95;;;;;;;28.74;100.00;153273.03;5072229;28;20644;-61
2022/07/16 09:09:35;;;;;;;1.70;1.60;;;;;;;29.04;100.00;153349.88;5072913;28;20192;-61
2022/07/16 09:12:02;;;;;;;2.00;1.90;;;;;;;29.28;100.00;153408.81;5072964;28;20701;-61
2022/07/16 09:14:28;;;;;;;2.17;2.00;;;;;;;29.36;91.81;153429.38;5072978;28;20279;-61
2022/07/16 09:16:56;;;;;;;1.58;1.50;;;;;;;29.21;80.79;153392.16;5072751;28;20192;-61
2022/07/16 09:19:25;;;;;;;2.15;1.80;;;;;;;29.27;93.26;153407.53;5073264;28;20647;-62
2022/07/16 09:22:06;;;;;;;1.50;1.45;;;;;;;29.29;99.39;153412.69;5073621;28;20267;-61
2022/07/16 09:24:40;;;;;;;1.90;1.55;;;;;;;29.20;94.67;153389.59;5074067;28;20191;-61
2022/07/16 09:27:09;;;;;;;2.65;1.42;;;;;;;29.10;88.37;153364.00;5073193;28;20213;-62
2022/07/16 09:29:37;;;;;;;1.63;1.52;;;;;;;29.00;91.88;153338.38;5071210;28;20202;-61
2022/07/16 09:32:05;;;;;;;1.20;1.20;;;;;;;28.70;85.76;153261.53;5072805;28;20204;-61
2022/07/16 09:34:33;;;;;;;1.92;1.80;;;;;;;28.95;100.00;153326.81;5071273;28;20191;-61
2022/07/16 09:37:02;;;;;;;1.70;1.60;;;;;;;29.45;100.00;153453.69;5074030;28;20276;-60
2022/07/16 09:39:30;;;;;;;2.47;1.60;;;;;;;29.78;100.00;153535.69;5075316;28;20193;-60
2022/07/16 09:41:58;;;;;;;6.72;1.95;;;;;;;30.25;100.00;153656.22;5077739;28;20196;-61
2022/07/16 09:44:28;;;;;;;3.38;1.80;;;;;;;30.27;100.00;153661.31;5077305;28;20188;-61
2022/07/16 09:47:04;;;;;;;2.60;2.25;;;;;;;30.25;100.00;153656.22;5077901;28;20193;-61
2022/07/16 09:49:34;;;;;;;2.20;2.10;;;;;;;30.27;100.00;153660.03;5078171;28;20682;-60
2022/07/16 09:52:01;;;;;;;2.10;2.00;;;;;;;29.98;100.00;153587.00;5079502;28;20189;-62
2022/07/16 09:54:30;;;;;;;2.40;2.30;;;;;;;29.61;100.00;153492.13;5079753;28;20189;-61
2022/07/16 09:57:15;;;;;;;3.33;2.45;;;;;;;29.20;100.00;153389.59;5082594;28;20544;-62
2022/07/16 09:59:43;;;;;;;2.50;2.30;;;;;;;29.53;100.00;153471.63;5082839;28;20185;-60
2022/07/16 10:02:10;;;;;;;2.33;2.22;;;;;;;29.79;100.00;153538.28;5081944;28;20213;-62
2022/07/16 10:04:38;;;;;;;2.78;2.55;;;;;;;29.27;100.00;153406.25;5080750;28;20678;-61
2022/07/16 10:07:05;;;;;;;2.33;2.22;;;;;;;29.62;100.00;153494.72;5079623;28;20181;-61
2022/07/16 10:09:32;;;;;;;2.25;2.05;;;;;;;29.93;100.00;153575.44;5078037;28;20185;-62
2022/07/16 10:12:06;;;;;;;2.72;2.30;;;;;;;29.97;100.00;153584.41;5076896;28;20315;-61
2022/07/16 10:14:37;;;;;;;2.35;2.25;;;;;;;29.73;100.00;153522.88;5076153;28;20238;-61
2022/07/16 10:17:13;;;;;;;2.03;1.92;;;;;;;29.34;100.00;153425.50;5076942;28;20587;-62
2022/07/16 10:19:41;;;;;;;1.83;1.73;;;;;;;29.28;100.00;153408.81;5076621;28;20180;-61
2022/07/16 10:22:18;;;;;;;1.92;1.83;;;;;;;29.68;100.00;153510.06;5076457;28;20189;-61
2022/07/16 10:24:47;;;;;;;2.30;1.88;;;;;;;29.92;100.00;153571.59;5075658;28;20180;-62
2022/07/16 10:27:24;;;;;;;3.85;1.70;;;;;;;30.03;100.00;153599.81;5076839;28;20554;-61
2022/07/16 10:30:15;;;;;;;3.08;1.80;;;;;;;30.11;100.00;153620.31;5076773;28;20195;-61
2022/07/16 10:33:13;;;;;;;1.52;1.42;;;;;;;30.16;100.00;153633.13;5076907;28;20210;-62
2022/07/16 10:35:47;;;;;;;3.15;1.85;;;;;;;30.60;100.00;153744.66;5077771;28;20193;-61
2022/07/16 10:38:16;;;;;;;3.00;2.00;;;;;;;30.31;100.00;153670.28;5075818;28;20189;-61
2022/07/16 10:40:44;;;;;;;2.83;1.60;;;;;;;30.33;100.00;153676.72;5075984;28;20193;-61
2022/07/16 10:43:14;;;;;;;3.95;1.60;;;;;;;29.80;100.00;153540.78;5076193;28;20276;-61
2022/07/16 10:45:55;;;;;;;4.30;1.90;;;;;;;29.72;100.00;153521.59;5076121;28;20532;-61
2022/07/16 10:48:24;;;;;;;2.53;1.70;;;;;;;29.77;100.00;153533.13;5076773;28;20732;-62
2022/07/16 10:51:10;;;;;;;2.45;1.90;;;;;;;29.71;100.00;153519.00;5076345;28;20280;-62
2022/07/16 10:54:13;;;;;;;1.90;1.90;;;;;;;29.63;100.00;153497.22;5076147;28;20188;-61
2022/07/16 10:56:45;;;;;;;6.90;2.33;;;;;;;29.73;100.00;153522.88;5065234;28;20223;-62
2022/07/16 10:59:14;;;;;;;2.00;1.90;;;;;;;29.36;100.00;153430.66;5075753;28;20219;-61
2022/07/16 11:01:45;;;;;;;2.10;1.90;;;;;;;29.34;100.00;153425.50;5076090;28;20670;-61
2022/07/16 11:04:13;;;;;;;1.98;1.88;;;;;;;29.06;100.00;153353.75;5074438;28;20227;-61
2022/07/16 11:06:42;;;;;;;2.35;2.25;;;;;;;28.53;100.00;153220.50;5076249;28;20266;-61
2022/07/16 11:09:10;;;;;;;4.60;1.80;;;;;;;28.31;100.00;153162.88;5075906;28;20215;-62
2022/07/16 11:11:39;;;;;;;1.83;1.70;;;;;;;28.34;100.00;153170.59;5075167;28;20236;-61
2022/07/16 11:14:07;;;;;;;2.53;2.03;;;;;;;28.54;100.00;153223.09;5074957;28;20188;-62
2022/07/16 11:16:34;;;;;;;1.90;1.83;;;;;;;28.75;100.00;153274.34;5075055;28;20265;-61
2022/07/16 11:19:04;;;;;;;1.75;1.73;;;;;;;28.38;100.00;153182.13;5074905;28;20623;-62
2022/07/16 11:21:32;;;;;;;2.08;1.83;;;;;;;28.38;100.00;153182.13;5075242;28;20184;-62
2022/07/16 11:24:05;;;;;;;3.35;2.20;;;;;;;28.08;100.00;153105.25;5075456;28;20555;-61
2022/07/16 11:26:32;;;;;;;3.45;1.98;;;;;;;28.30;100.00;153161.66;5075517;28;20713;-61
2022/07/16 11:29:01;;;;;;;1.90;1.70;;;;;;;28.35;100.00;153174.41;5074549;28;20746;-61
2022/07/16 11:31:29;;;;;;;3.22;2.30;;;;;;;28.47;100.00;153203.88;5074723;28;20184;-61